Thursday, January 18, 2018, 10:59 PM EST
Back to Local

KCDW, Caldwell Essex County Airport

Location: Fairfield, NJ, United States Lat: 40.883
Local Time: 10:59 PM EST ( 3:59 GMT) Lon: -74.283
Time Zone: US/Eastern Elev: 173 ft

Show me the last for .
Show Coded

Time T Td Feel RH Dir Speed Gust Alt SLP Vis Weather Sky Remarks
2018-01-18 21:53 20 12 - 70 - Calm - 30.09 30.11 10 CLR None
2018-01-18 20:53 23 12 18 62 Variable 3 - 30.07 30.09 10 CLR None
2018-01-18 19:53 24 11 20 56 320° 3 - 30.05 30.07 10 CLR None
2018-01-18 18:53 27 11 22 50 320° 5 - 30.04 30.06 10 CLR 6-hr Min Temp (7pm): 26.1°F
6-hr Max Temp (7pm): 30.9°F
2018-01-18 17:53 27 11 - 50 - Calm - 30.01 30.03 10 CLR None
2018-01-18 16:53 28 11 20 48 300° 8 - 29.97 29.99 10 CLR None
2018-01-18 15:53 31 11 22 42 320° 10 - 29.95 29.98 10 CLR None
2018-01-18 14:53 31 10 22 41 320° 12 - 29.94 29.96 10 CLR None
2018-01-18 13:53 30 8 21 38 330° 12 - 29.95 29.97 10 CLR None
2018-01-18 12:53 29 8 19 40 300° 13 - 29.97 29.99 10 CLR 6-hr Min Temp (1pm): 14.0°F
6-hr Max Temp (1pm): 28.9°F
2018-01-18 11:53 27 7 19 42 320° 8 - 30.02 30.04 10 CLR None
2018-01-18 10:53 26 6 17 41 310° 9 - 30.06 30.09 10 CLR None
2018-01-18 09:53 24 6 14 45 310° 10 - 30.08 30.10 10 CLR None
2018-01-18 08:53 19 7 11 58 270° 6 - 30.07 30.10 10 CLR None
2018-01-18 07:53 15 9 - 76 - Calm - 30.09 30.11 10 CLR None
2018-01-18 06:53 16 8 9 70 210° 5 - 30.10 30.12 10 CLR 24-hr Precip Total (7am): 0.01"
6-hr Min Temp (7am): 10.9°F
6-hr Max Temp (7am): 17.1°F
2018-01-18 05:53 14 9 5 79 320° 6 - 30.03 30.05 10 CLR None
2018-01-18 04:53 13 8 7 80 220° 3 - 30.06 30.09 10 CLR None
2018-01-18 03:53 13 8 - 80 - Calm - 30.08 30.10 10 CLR Pressure falling rapidly
2018-01-18 02:53 13 9 - 83 - Calm - 30.14 30.16 10 CLR None
2018-01-18 01:53 15 9 8 76 270° 5 - 30.15 30.17 10 CLR None
2018-01-18 00:53 17 9 8 69 300° 7 - 30.16 30.18 10 CLR 6-hr Min Temp (1am): 17.1°F
6-hr Max Temp (1am): 23.0°F
2018-01-17 23:53 18 9 10 67 310° 6 - 30.18 30.20 10 CLR 24-hr Min Temp (12am): 18.0°F
24-hr Max Temp (12am): 33.1°F

Support USWX by starting your Amazon purchase here.